sensor_id;sensor_type;location;lat;lon;timestamp;P1;durP1;ratioP1;P2;durP2;ratioP2
1523;SDS011;755;53.658;10.118;2023-06-14T00:08:55;4.45;;;2.17;;
1523;SDS011;755;53.658;10.118;2023-06-14T00:18:58;8.52;;;2.70;;
1523;SDS011;755;53.658;10.118;2023-06-14T00:29:00;12.02;;;3.25;;
1523;SDS011;755;53.658;10.118;2023-06-14T00:39:03;6.22;;;2.20;;
1523;SDS011;755;53.658;10.118;2023-06-14T00:49:05;7.60;;;2.55;;
1523;SDS011;755;53.658;10.118;2023-06-14T00:59:08;8.32;;;2.53;;
1523;SDS011;755;53.658;10.118;2023-06-14T01:09:13;7.55;;;2.53;;
1523;SDS011;755;53.658;10.118;2023-06-14T01:19:21;6.85;;;2.75;;
1523;SDS011;755;53.658;10.118;2023-06-14T01:29:27;8.70;;;2.80;;
1523;SDS011;755;53.658;10.118;2023-06-14T01:39:32;5.93;;;2.47;;
1523;SDS011;755;53.658;10.118;2023-06-14T01:49:37;7.20;;;2.58;;
1523;SDS011;755;53.658;10.118;2023-06-14T01:59:39;4.93;;;2.38;;
1523;SDS011;755;53.658;10.118;2023-06-14T02:09:43;6.28;;;3.67;;
1523;SDS011;755;53.658;10.118;2023-06-14T02:19:46;7.50;;;2.47;;
1523;SDS011;755;53.658;10.118;2023-06-14T02:29:51;7.82;;;2.75;;
1523;SDS011;755;53.658;10.118;2023-06-14T02:39:53;12.20;;;2.97;;
1523;SDS011;755;53.658;10.118;2023-06-14T02:49:58;5.88;;;2.80;;
1523;SDS011;755;53.658;10.118;2023-06-14T03:00:01;7.18;;;3.58;;
1523;SDS011;755;53.658;10.118;2023-06-14T03:10:05;6.75;;;3.38;;
1523;SDS011;755;53.658;10.118;2023-06-14T03:20:08;7.22;;;3.08;;
1523;SDS011;755;53.658;10.118;2023-06-14T03:30:12;6.07;;;3.42;;
1523;SDS011;755;53.658;10.118;2023-06-14T03:40:17;7.05;;;3.30;;
1523;SDS011;755;53.658;10.118;2023-06-14T03:50:21;6.57;;;2.92;;
1523;SDS011;755;53.658;10.118;2023-06-14T04:00:23;6.55;;;3.28;;
1523;SDS011;755;53.658;10.118;2023-06-14T04:10:27;6.13;;;2.90;;
1523;SDS011;755;53.658;10.118;2023-06-14T04:20:29;10.02;;;2.85;;
1523;SDS011;755;53.658;10.118;2023-06-14T04:30:32;5.47;;;2.90;;
1523;SDS011;755;53.658;10.118;2023-06-14T04:40:35;11.70;;;3.33;;
1523;SDS011;755;53.658;10.118;2023-06-14T05:00:45;7.78;;;3.17;;
1523;SDS011;755;53.658;10.118;2023-06-14T05:10:49;10.02;;;2.83;;
1523;SDS011;755;53.658;10.118;2023-06-14T05:20:51;10.85;;;3.38;;
1523;SDS011;755;53.658;10.118;2023-06-14T05:30:54;11.07;;;3.22;;
1523;SDS011;755;53.658;10.118;2023-06-14T05:40:56;9.40;;;2.70;;
1523;SDS011;755;53.658;10.118;2023-06-14T05:51:01;8.45;;;3.22;;
1523;SDS011;755;53.658;10.118;2023-06-14T06:01:03;7.88;;;2.80;;
1523;SDS011;755;53.658;10.118;2023-06-14T06:11:06;11.80;;;2.58;;
1523;SDS011;755;53.658;10.118;2023-06-14T06:21:08;8.00;;;2.75;;
1523;SDS011;755;53.658;10.118;2023-06-14T06:31:11;4.45;;;2.40;;
1523;SDS011;755;53.658;10.118;2023-06-14T06:41:13;9.13;;;2.80;;
1523;SDS011;755;53.658;10.118;2023-06-14T06:51:17;7.53;;;2.35;;
1523;SDS011;755;53.658;10.118;2023-06-14T07:01:19;6.78;;;2.72;;
1523;SDS011;755;53.658;10.118;2023-06-14T07:11:22;5.75;;;2.20;;
1523;SDS011;755;53.658;10.118;2023-06-14T07:21:24;4.15;;;1.95;;
1523;SDS011;755;53.658;10.118;2023-06-14T07:31:28;3.17;;;2.17;;
1523;SDS011;755;53.658;10.118;2023-06-14T07:41:30;5.55;;;1.95;;
1523;SDS011;755;53.658;10.118;2023-06-14T07:51:33;5.50;;;2.13;;
1523;SDS011;755;53.658;10.118;2023-06-14T08:01:35;4.43;;;2.03;;
1523;SDS011;755;53.658;10.118;2023-06-14T08:11:38;8.57;;;2.00;;
1523;SDS011;755;53.658;10.118;2023-06-14T08:21:40;4.95;;;2.42;;
1523;SDS011;755;53.658;10.118;2023-06-14T08:31:43;3.67;;;1.80;;
1523;SDS011;755;53.658;10.118;2023-06-14T08:41:46;4.00;;;1.90;;
1523;SDS011;755;53.658;10.118;2023-06-14T08:51:49;14.25;;;2.13;;
1523;SDS011;755;53.658;10.118;2023-06-14T09:01:58;7.90;;;2.92;;
1523;SDS011;755;53.658;10.118;2023-06-14T09:12:01;3.30;;;2.33;;
1523;SDS011;755;53.658;10.118;2023-06-14T09:22:04;4.82;;;2.13;;
1523;SDS011;755;53.658;10.118;2023-06-14T09:32:08;9.38;;;2.70;;
1523;SDS011;755;53.658;10.118;2023-06-14T09:42:17;5.85;;;2.20;;
1523;SDS011;755;53.658;10.118;2023-06-14T09:52:23;9.73;;;2.58;;
1523;SDS011;755;53.658;10.118;2023-06-14T10:02:28;5.25;;;1.98;;
1523;SDS011;755;53.658;10.118;2023-06-14T10:12:39;8.05;;;2.10;;
1523;SDS011;755;53.658;10.118;2023-06-14T10:22:42;3.95;;;2.35;;
1523;SDS011;755;53.658;10.118;2023-06-14T10:43:23;9.80;;;2.60;;
1523;SDS011;755;53.658;10.118;2023-06-14T10:53:31;6.97;;;2.45;;
1523;SDS011;755;53.658;10.118;2023-06-14T11:03:45;7.28;;;2.13;;
1523;SDS011;755;53.658;10.118;2023-06-14T11:14:00;4.65;;;2.10;;
1523;SDS011;755;53.658;10.118;2023-06-14T11:24:04;6.47;;;2.28;;
1523;SDS011;755;53.658;10.118;2023-06-14T11:34:52;6.65;;;2.17;;
1523;SDS011;755;53.658;10.118;2023-06-14T11:44:55;6.75;;;2.40;;
1523;SDS011;755;53.658;10.118;2023-06-14T11:55:01;7.97;;;2.53;;
1523;SDS011;755;53.658;10.118;2023-06-14T12:15:16;5.53;;;2.22;;
1523;SDS011;755;53.658;10.118;2023-06-14T12:25:40;4.40;;;1.92;;
1523;SDS011;755;53.658;10.118;2023-06-14T12:36:11;9.82;;;2.40;;
1523;SDS011;755;53.658;10.118;2023-06-14T12:46:23;8.52;;;2.20;;
1523;SDS011;755;53.658;10.118;2023-06-14T12:56:27;4.97;;;2.17;;
1523;SDS011;755;53.658;10.118;2023-06-14T13:06:30;5.82;;;2.38;;
1523;SDS011;755;53.658;10.118;2023-06-14T13:16:34;3.70;;;1.98;;
1523;SDS011;755;53.658;10.118;2023-06-14T13:26:37;3.53;;;2.22;;
1523;SDS011;755;53.658;10.118;2023-06-14T13:36:40;6.28;;;2.20;;
1523;SDS011;755;53.658;10.118;2023-06-14T13:46:42;6.85;;;2.15;;
1523;SDS011;755;53.658;10.118;2023-06-14T13:56:46;5.38;;;1.63;;
1523;SDS011;755;53.658;10.118;2023-06-14T14:06:48;3.47;;;1.85;;
1523;SDS011;755;53.658;10.118;2023-06-14T14:16:51;8.57;;;2.20;;
1523;SDS011;755;53.658;10.118;2023-06-14T14:26:55;7.93;;;2.45;;
1523;SDS011;755;53.658;10.118;2023-06-14T14:37:01;3.50;;;2.03;;
1523;SDS011;755;53.658;10.118;2023-06-14T14:47:03;9.88;;;2.33;;
1523;SDS011;755;53.658;10.118;2023-06-14T14:57:07;9.35;;;1.92;;
1523;SDS011;755;53.658;10.118;2023-06-14T15:07:11;4.25;;;1.90;;
1523;SDS011;755;53.658;10.118;2023-06-14T15:17:14;5.70;;;2.03;;
1523;SDS011;755;53.658;10.118;2023-06-14T15:27:16;8.35;;;2.22;;
1523;SDS011;755;53.658;10.118;2023-06-14T15:37:19;4.85;;;2.10;;
1523;SDS011;755;53.658;10.118;2023-06-14T15:47:21;5.53;;;2.13;;
1523;SDS011;755;53.658;10.118;2023-06-14T15:57:25;5.60;;;2.30;;
1523;SDS011;755;53.658;10.118;2023-06-14T16:07:27;15.27;;;1.80;;
1523;SDS011;755;53.658;10.118;2023-06-14T16:17:30;10.40;;;2.00;;
1523;SDS011;755;53.658;10.118;2023-06-14T16:27:32;4.03;;;1.70;;
1523;SDS011;755;53.658;10.118;2023-06-14T16:37:36;3.33;;;2.00;;
1523;SDS011;755;53.658;10.118;2023-06-14T16:47:38;6.63;;;1.85;;
1523;SDS011;755;53.658;10.118;2023-06-14T16:57:41;5.22;;;1.90;;
1523;SDS011;755;53.658;10.118;2023-06-14T17:07:43;7.00;;;1.70;;
1523;SDS011;755;53.658;10.118;2023-06-14T17:17:46;2.45;;;1.35;;
1523;SDS011;755;53.658;10.118;2023-06-14T17:27:48;4.75;;;1.55;;
1523;SDS011;755;53.658;10.118;2023-06-14T17:37:51;7.78;;;1.80;;
1523;SDS011;755;53.658;10.118;2023-06-14T17:47:53;4.35;;;1.58;;
1523;SDS011;755;53.658;10.118;2023-06-14T17:57:56;5.30;;;1.50;;
1523;SDS011;755;53.658;10.118;2023-06-14T18:07:58;7.60;;;1.63;;
1523;SDS011;755;53.658;10.118;2023-06-14T18:18:02;3.00;;;1.40;;
1523;SDS011;755;53.658;10.118;2023-06-14T18:28:04;5.93;;;1.65;;
1523;SDS011;755;53.658;10.118;2023-06-14T18:38:07;7.35;;;1.73;;
1523;SDS011;755;53.658;10.118;2023-06-14T18:48:09;6.75;;;1.48;;
1523;SDS011;755;53.658;10.118;2023-06-14T18:58:12;5.07;;;1.48;;
1523;SDS011;755;53.658;10.118;2023-06-14T19:08:14;3.17;;;1.63;;
1523;SDS011;755;53.658;10.118;2023-06-14T19:18:18;3.58;;;1.67;;
1523;SDS011;755;53.658;10.118;2023-06-14T19:28:19;4.53;;;1.92;;
1523;SDS011;755;53.658;10.118;2023-06-14T19:38:23;6.25;;;2.08;;
1523;SDS011;755;53.658;10.118;2023-06-14T19:48:25;4.18;;;1.60;;
1523;SDS011;755;53.658;10.118;2023-06-14T19:58:28;4.68;;;1.75;;
1523;SDS011;755;53.658;10.118;2023-06-14T20:08:30;4.38;;;1.70;;
1523;SDS011;755;53.658;10.118;2023-06-14T20:18:34;5.20;;;1.65;;
1523;SDS011;755;53.658;10.118;2023-06-14T20:28:36;3.20;;;1.67;;
1523;SDS011;755;53.658;10.118;2023-06-14T20:38:39;2.90;;;1.85;;
1523;SDS011;755;53.658;10.118;2023-06-14T20:48:41;6.57;;;2.40;;
1523;SDS011;755;53.658;10.118;2023-06-14T20:58:44;3.92;;;2.10;;
1523;SDS011;755;53.658;10.118;2023-06-14T21:08:46;6.22;;;2.05;;
1523;SDS011;755;53.658;10.118;2023-06-14T21:18:49;7.35;;;2.13;;
1523;SDS011;755;53.658;10.118;2023-06-14T21:28:51;5.05;;;2.38;;
1523;SDS011;755;53.658;10.118;2023-06-14T21:38:54;7.82;;;2.10;;
1523;SDS011;755;53.658;10.118;2023-06-14T21:48:56;5.13;;;1.90;;
1523;SDS011;755;53.658;10.118;2023-06-14T21:59:00;9.75;;;1.88;;
1523;SDS011;755;53.658;10.118;2023-06-14T22:09:02;5.95;;;1.85;;
1523;SDS011;755;53.658;10.118;2023-06-14T22:19:06;4.47;;;1.95;;
1523;SDS011;755;53.658;10.118;2023-06-14T22:29:08;6.05;;;1.92;;
1523;SDS011;755;53.658;10.118;2023-06-14T22:39:12;4.60;;;1.83;;
1523;SDS011;755;53.658;10.118;2023-06-14T22:49:14;5.75;;;1.88;;
1523;SDS011;755;53.658;10.118;2023-06-14T22:59:18;4.03;;;1.92;;
1523;SDS011;755;53.658;10.118;2023-06-14T23:09:20;7.05;;;1.92;;
1523;SDS011;755;53.658;10.118;2023-06-14T23:19:23;5.70;;;2.00;;
1523;SDS011;755;53.658;10.118;2023-06-14T23:29:26;7.50;;;2.38;;
1523;SDS011;755;53.658;10.118;2023-06-14T23:39:30;5.45;;;2.15;;
1523;SDS011;755;53.658;10.118;2023-06-14T23:49:33;2.58;;;1.77;;
1523;SDS011;755;53.658;10.118;2023-06-14T23:59:36;9.05;;;1.98;;
